Time;durP1;ratioP1;P1;durP2;ratioP2;P2;SDS_P1;SDS_P2;PMS_P1;PMS_P2;Temp;Humidity;BMP_temperature;BMP_pressure;BME280_temperature;BME280_humidity;BME280_pressure;Samples;Min_cycle;Max_cycle;Signal;HPM_P1;HPM_P2
2023/11/22 00:01:27;;;;;;;;;;;4.60;99.90;;;;;;8372446;28;19974;-71
2023/11/22 00:05:28;;;;;;;;;;;4.60;99.90;;;;;;8375224;28;19924;-70
2023/11/22 00:09:30;;;;;;;;;;;4.60;99.90;;;;;;8363150;28;20403;-70
2023/11/22 00:13:32;;;;;;;;;;;4.60;99.90;;;;;;8356517;28;20291;-70
2023/11/22 00:17:34;;;;;;;;;;;4.60;99.90;;;;;;8370239;28;19924;-70
2023/11/22 00:21:36;;;;;;;;;;;4.50;99.90;;;;;;8361380;28;19978;-70
2023/11/22 00:25:38;;;;;;;;;;;4.50;99.90;;;;;;8373284;28;19935;-70
2023/11/22 00:29:39;;;;;;;;;;;4.50;99.90;;;;;;8391109;28;19924;-70
2023/11/22 00:33:41;;;;;;;;;;;4.50;99.90;;;;;;8399390;28;19932;-71
2023/11/22 00:37:43;;;;;;;;;;;4.50;99.90;;;;;;8382932;28;19939;-71
2023/11/22 00:41:45;;;;;;;;;;;4.50;99.90;;;;;;8375595;28;19932;-70
2023/11/22 00:45:46;;;;;;;;;;;4.40;99.90;;;;;;8371287;28;20259;-71
2023/11/22 00:49:48;;;;;;;;;;;4.30;99.90;;;;;;8390582;28;19940;-70
2023/11/22 00:53:50;;;;;;;;;;;4.40;99.90;;;;;;8392815;28;19928;-70
2023/11/22 00:57:52;;;;;;;;;;;4.30;99.90;;;;;;8398171;28;19935;-70
2023/11/22 01:01:54;;;;;;;;;;;4.30;99.90;;;;;;8381553;28;19928;-70
2023/11/22 01:05:55;;;;;;;;;;;4.30;99.90;;;;;;8387878;28;19924;-70
2023/11/22 01:09:57;;;;;;;;;;;4.20;99.90;;;;;;8393355;28;20015;-70
2023/11/22 01:13:58;;;;;;;;;;;4.20;99.90;;;;;;8400409;28;20121;-70
2023/11/22 01:18:00;;;;;;;;;;;4.10;99.90;;;;;;8363891;28;20366;-70
2023/11/22 01:22:02;;;;;;;;;;;4.10;99.90;;;;;;8375802;28;20303;-70
2023/11/22 01:26:05;;;;;;;;;;;4.20;99.90;;;;;;8395501;28;19932;-70
2023/11/22 01:30:07;;;;;;;;;;;4.20;99.90;;;;;;8391997;28;20316;-70
2023/11/22 01:34:09;;;;;;;;;;;4.20;99.90;;;;;;8389442;28;19924;-70
2023/11/22 01:38:11;;;;;;;;;;;4.10;99.90;;;;;;8378929;28;20364;-70
2023/11/22 01:42:13;;;;;;;;;;;4.10;99.90;;;;;;8386753;28;19924;-71
2023/11/22 01:46:25;;;;;;;;;;;4.10;99.90;;;;;;8395274;28;19932;-70
2023/11/22 01:50:27;;;;;;;;;;;4.00;99.90;;;;;;8358984;28;19985;-70
2023/11/22 01:54:30;;;;;;;;;;;4.10;99.90;;;;;;8366056;28;19932;-71
2023/11/22 01:58:31;;;;;;;;;;;4.10;99.90;;;;;;8369616;28;20300;-70
2023/11/22 02:02:33;;;;;;;;;;;4.10;99.90;;;;;;8368040;28;19978;-70
2023/11/22 02:06:36;;;;;;;;;;;4.10;99.90;;;;;;8378314;28;19932;-70
2023/11/22 02:10:38;;;;;;;;;;;4.10;99.90;;;;;;8403178;28;19975;-70
2023/11/22 02:14:40;;;;;;;;;;;4.00;99.90;;;;;;8391957;28;19963;-71
2023/11/22 02:18:43;;;;;;;;;;;4.00;99.90;;;;;;8368201;28;19924;-71
2023/11/22 02:22:45;;;;;;;;;;;3.90;99.90;;;;;;8394249;28;20004;-70
2023/11/22 02:26:47;;;;;;;;;;;3.90;99.90;;;;;;8396301;28;20361;-70
2023/11/22 02:30:49;;;;;;;;;;;3.80;99.90;;;;;;8393993;28;19954;-70
2023/11/22 02:34:51;;;;;;;;;;;3.70;99.90;;;;;;8401820;28;19924;-70
2023/11/22 02:38:53;;;;;;;;;;;3.60;99.90;;;;;;8400184;28;20346;-70
2023/11/22 02:42:56;;;;;;;;;;;3.60;99.90;;;;;;8387114;28;19928;-70
2023/11/22 02:46:58;;;;;;;;;;;3.50;99.90;;;;;;8411555;28;19939;-71
2023/11/22 02:51:00;;;;;;;;;;;3.40;99.90;;;;;;8406216;28;20323;-70
2023/11/22 02:55:01;;;;;;;;;;;3.40;99.90;;;;;;8409986;28;19924;-71
2023/11/22 02:59:03;;;;;;;;;;;3.30;99.90;;;;;;8380254;28;19929;-70
2023/11/22 03:03:09;;;;;;;;;;;3.30;99.90;;;;;;8365725;28;19966;-70
2023/11/22 03:07:11;;;;;;;;;;;3.10;99.90;;;;;;8384677;28;19966;-70
2023/11/22 03:11:13;;;;;;;;;;;3.10;99.90;;;;;;8376020;28;19933;-70
2023/11/22 03:15:15;;;;;;;;;;;3.00;99.90;;;;;;8389764;28;19928;-70
2023/11/22 03:19:16;;;;;;;;;;;3.00;99.90;;;;;;8389201;28;19924;-70
2023/11/22 03:23:18;;;;;;;;;;;3.10;99.90;;;;;;8376312;28;20307;-70
2023/11/22 03:27:22;;;;;;;;;;;3.00;99.90;;;;;;8384914;28;19925;-70
2023/11/22 03:31:23;;;;;;;;;;;3.00;99.90;;;;;;8396194;28;19928;-70
2023/11/22 03:35:25;;;;;;;;;;;3.00;99.90;;;;;;8383989;28;19994;-70
2023/11/22 03:39:26;;;;;;;;;;;2.90;99.90;;;;;;8395215;28;19924;-70
2023/11/22 03:43:28;;;;;;;;;;;2.90;99.90;;;;;;8402679;28;19932;-70
2023/11/22 03:47:31;;;;;;;;;;;2.80;99.90;;;;;;8397088;28;20383;-70
2023/11/22 03:51:33;;;;;;;;;;;2.80;99.90;;;;;;8410784;28;19982;-70
2023/11/22 03:55:35;;;;;;;;;;;2.80;99.90;;;;;;8391382;28;20356;-70
2023/11/22 03:59:36;;;;;;;;;;;2.80;99.90;;;;;;8401734;28;19978;-71
2023/11/22 04:03:38;;;;;;;;;;;2.80;99.90;;;;;;8403098;28;19926;-70
2023/11/22 04:07:40;;;;;;;;;;;2.80;99.90;;;;;;8382439;28;19925;-70
2023/11/22 04:11:42;;;;;;;;;;;2.80;99.90;;;;;;8385843;28;19936;-70
2023/11/22 04:15:43;;;;;;;;;;;2.80;99.90;;;;;;8397963;28;19932;-70
2023/11/22 04:19:45;;;;;;;;;;;2.80;99.90;;;;;;8389940;28;19951;-71
2023/11/22 04:23:48;;;;;;;;;;;2.80;99.90;;;;;;8402242;28;20299;-70
2023/11/22 04:27:49;;;;;;;;;;;2.90;99.90;;;;;;8382166;28;19976;-71
2023/11/22 04:31:51;;;;;;;;;;;2.90;99.90;;;;;;8396197;28;19925;-70
2023/11/22 04:35:53;;;;;;;;;;;2.90;99.90;;;;;;8419506;28;20333;-70
2023/11/22 04:39:54;;;;;;;;;;;2.90;99.90;;;;;;8393827;28;19925;-70
2023/11/22 04:43:56;;;;;;;;;;;2.80;99.90;;;;;;8408497;28;19924;-70
2023/11/22 04:47:58;;;;;;;;;;;2.80;99.90;;;;;;8381536;28;20332;-70
2023/11/22 04:51:59;;;;;;;;;;;2.80;99.90;;;;;;8397637;28;19947;-71
2023/11/22 04:56:05;;;;;;;;;;;2.80;99.90;;;;;;8414363;28;19925;-70
2023/11/22 05:00:07;;;;;;;;;;;2.80;99.90;;;;;;8383102;28;19977;-69
2023/11/22 05:04:10;;;;;;;;;;;2.80;99.90;;;;;;8389233;28;19924;-69
2023/11/22 05:08:12;;;;;;;;;;;2.80;99.90;;;;;;8404224;28;19924;-70
2023/11/22 05:12:14;;;;;;;;;;;2.80;99.90;;;;;;8398616;28;19939;-70
2023/11/22 05:16:17;;;;;;;;;;;2.80;99.90;;;;;;8377046;28;19932;-70
2023/11/22 05:20:18;;;;;;;;;;;2.80;99.90;;;;;;8352059;28;19933;-70
2023/11/22 05:24:20;;;;;;;;;;;2.80;99.90;;;;;;8373130;28;19924;-70
2023/11/22 05:28:22;;;;;;;;;;;2.80;99.90;;;;;;8373780;28;19931;-70
2023/11/22 05:32:24;;;;;;;;;;;2.80;99.90;;;;;;8381369;28;19932;-70
2023/11/22 05:36:25;;;;;;;;;;;2.90;99.90;;;;;;8364031;28;19929;-70
2023/11/22 05:40:27;;;;;;;;;;;2.90;99.90;;;;;;8375117;28;19928;-70
2023/11/22 05:44:29;;;;;;;;;;;2.90;99.90;;;;;;8380888;28;19928;-70
2023/11/22 05:48:30;;;;;;;;;;;2.90;99.90;;;;;;8366923;28;20283;-70
2023/11/22 05:52:32;;;;;;;;;;;2.90;99.90;;;;;;8369919;28;20255;-70
2023/11/22 05:56:34;;;;;;;;;;;2.90;99.90;;;;;;8369286;28;19925;-70
2023/11/22 06:00:37;;;;;;;;;;;2.90;99.90;;;;;;8366310;28;19935;-70
2023/11/22 06:04:39;;;;;;;;;;;3.00;99.90;;;;;;8358620;28;19970;-70
2023/11/22 06:08:43;;;;;;;;;;;3.00;99.90;;;;;;8369265;28;19958;-70
2023/11/22 06:12:44;;;;;;;;;;;3.00;99.90;;;;;;8368847;28;19924;-70
2023/11/22 06:16:46;;;;;;;;;;;3.10;99.90;;;;;;8362568;28;19933;-70
2023/11/22 06:20:48;;;;;;;;;;;3.10;99.90;;;;;;8360733;28;19982;-70
2023/11/22 06:24:50;;;;;;;;;;;3.10;99.90;;;;;;8382418;28;19925;-70
2023/11/22 06:28:52;;;;;;;;;;;3.20;99.90;;;;;;8350486;28;19971;-70
2023/11/22 06:32:53;;;;;;;;;;;3.20;99.90;;;;;;8367810;28;19990;-70
2023/11/22 06:36:55;;;;;;;;;;;3.20;99.90;;;;;;8369097;28;20368;-69
2023/11/22 06:40:57;;;;;;;;;;;3.30;99.90;;;;;;8371345;28;19957;-70
2023/11/22 06:45:00;;;;;;;;;;;3.30;99.90;;;;;;8383211;28;20391;-70
2023/11/22 06:49:02;;;;;;;;;;;3.20;99.90;;;;;;8372854;28;20446;-70
2023/11/22 06:53:04;;;;;;;;;;;3.20;99.90;;;;;;8358069;28;20031;-70
2023/11/22 06:57:05;;;;;;;;;;;3.20;99.90;;;;;;8376266;28;19929;-70
2023/11/22 07:01:07;;;;;;;;;;;3.20;99.90;;;;;;8390991;28;20318;-70
2023/11/22 07:05:09;;;;;;;;;;;3.20;99.90;;;;;;8396393;28;20003;-70
2023/11/22 07:09:11;;;;;;;;;;;3.20;99.90;;;;;;8383173;28;19939;-70
2023/11/22 07:13:13;;;;;;;;;;;3.20;99.90;;;;;;8399404;28;20322;-70
2023/11/22 07:17:15;;;;;;;;;;;3.20;99.90;;;;;;8387981;28;19925;-70
2023/11/22 07:21:17;;;;;;;;;;;3.20;99.90;;;;;;8404712;28;19940;-70
2023/11/22 07:25:18;;;;;;;;;;;3.30;99.90;;;;;;8378926;28;20288;-70
2023/11/22 07:29:21;;;;;;;;;;;3.30;99.90;;;;;;8414864;28;19924;-70
2023/11/22 07:33:26;;;;;;;;;;;3.30;99.90;;;;;;8378189;28;19936;-70
2023/11/22 07:37:27;;;;;;;;;;;3.30;99.90;;;;;;8365148;28;19971;-70
2023/11/22 07:41:31;;;;;;;;;;;3.30;99.90;;;;;;8375267;28;19944;-70
2023/11/22 07:45:32;;;;;;;;;;;3.30;99.90;;;;;;8401928;28;19924;-70
2023/11/22 07:49:37;;;;;;;;;;;3.30;99.90;;;;;;8367499;28;19929;-70
2023/11/22 07:53:40;;;;;;;;;;;3.30;99.90;;;;;;8398311;28;19932;-70
2023/11/22 07:57:43;;;;;;;;;;;3.30;99.90;;;;;;8393110;28;20392;-69
2023/11/22 08:01:47;;;;;;;;;;;3.30;99.90;;;;;;8401390;28;19935;-70
2023/11/22 08:05:49;;;;;;;;;;;3.40;99.90;;;;;;8394205;28;20027;-70
2023/11/22 08:09:51;;;;;;;;;;;3.40;99.90;;;;;;8407853;28;19928;-69
2023/11/22 08:13:54;;;;;;;;;;;3.40;99.90;;;;;;8409236;28;20268;-70
2023/11/22 08:17:56;;;;;;;;;;;3.40;99.90;;;;;;8404182;28;19969;-70
2023/11/22 08:21:58;;;;;;;;;;;3.40;99.90;;;;;;8407779;28;19924;-70
2023/11/22 08:26:00;;;;;;;;;;;3.40;99.90;;;;;;8390286;28;19924;-70
2023/11/22 08:30:04;;;;;;;;;;;3.50;99.90;;;;;;8393913;28;19928;-70
2023/11/22 08:34:07;;;;;;;;;;;3.50;99.90;;;;;;8413101;28;19924;-70
2023/11/22 08:38:09;;;;;;;;;;;3.60;99.90;;;;;;8410918;28;19978;-69
2023/11/22 08:42:11;;;;;;;;;;;3.60;99.90;;;;;;8354375;28;20359;-70
2023/11/22 08:46:14;;;;;;;;;;;3.70;99.90;;;;;;8409557;28;19924;-70
2023/11/22 08:50:16;;;;;;;;;;;3.80;99.90;;;;;;8408659;28;20022;-70
2023/11/22 08:54:18;;;;;;;;;;;4.00;99.90;;;;;;8419306;28;20395;-70
2023/11/22 08:58:20;;;;;;;;;;;4.10;99.90;;;;;;8406975;28;19924;-70
2023/11/22 09:02:22;;;;;;;;;;;4.20;99.90;;;;;;8418717;28;20303;-70
2023/11/22 09:06:24;;;;;;;;;;;4.30;99.90;;;;;;8410039;28;20392;-70
2023/11/22 09:10:26;;;;;;;;;;;4.40;99.90;;;;;;8414123;28;19986;-70
2023/11/22 09:14:28;;;;;;;;;;;4.50;99.90;;;;;;8420511;28;20471;-70
2023/11/22 09:18:30;;;;;;;;;;;4.60;99.90;;;;;;8402875;28;19924;-70
2023/11/22 09:22:32;;;;;;;;;;;4.70;99.90;;;;;;8396603;28;19925;-70
2023/11/22 09:26:34;;;;;;;;;;;4.80;99.90;;;;;;8413980;28;20291;-70
2023/11/22 09:30:37;;;;;;;;;;;4.90;99.90;;;;;;8397035;28;19934;-70
2023/11/22 09:34:39;;;;;;;;;;;5.00;99.90;;;;;;8386823;28;19924;-70
2023/11/22 09:38:41;;;;;;;;;;;5.10;99.90;;;;;;8389411;28;19963;-70
2023/11/22 09:42:46;;;;;;;;;;;5.20;99.90;;;;;;8402340;28;19924;-70
2023/11/22 09:46:48;;;;;;;;;;;5.20;99.90;;;;;;8369988;28;20328;-70
2023/11/22 09:50:54;;;;;;;;;;;5.30;99.90;;;;;;8378714;28;19955;-70
2023/11/22 09:54:55;;;;;;;;;;;5.30;99.90;;;;;;8403712;28;19940;-70
2023/11/22 09:59:00;;;;;;;;;;;5.40;99.90;;;;;;8392321;28;20045;-70
2023/11/22 10:03:02;;;;;;;;;;;5.50;99.90;;;;;;8402649;28;19924;-70
2023/11/22 10:07:04;;;;;;;;;;;5.50;99.90;;;;;;8382472;28;19925;-70
2023/11/22 10:11:06;;;;;;;;;;;5.60;99.90;;;;;;8400599;28;19969;-70
2023/11/22 10:15:18;;;;;;;;;;;5.60;99.90;;;;;;8396292;28;20265;-70
2023/11/22 10:19:20;;;;;;;;;;;5.60;99.90;;;;;;8390664;28;19932;-70
2023/11/22 10:23:28;;;;;;;;;;;5.70;99.90;;;;;;8397198;28;19924;-70
2023/11/22 10:27:30;;;;;;;;;;;5.70;99.90;;;;;;8395213;28;20433;-70
2023/11/22 10:31:34;;;;;;;;;;;5.70;99.90;;;;;;8366941;28;19931;-69
2023/11/22 10:35:36;;;;;;;;;;;5.60;99.90;;;;;;8381612;28;19929;-70
2023/11/22 10:39:37;;;;;;;;;;;5.70;99.90;;;;;;8397428;28;20012;-70
2023/11/22 10:43:41;;;;;;;;;;;5.70;99.90;;;;;;8389626;28;19925;-70
2023/11/22 10:47:45;;;;;;;;;;;5.90;99.90;;;;;;8361502;28;19925;-70
2023/11/22 10:51:51;;;;;;;;;;;6.00;99.90;;;;;;8400506;28;19958;-70
2023/11/22 10:55:57;;;;;;;;;;;6.30;99.90;;;;;;8410765;28;19970;-70
2023/11/22 11:00:05;;;;;;;;;;;6.50;99.90;;;;;;8403122;28;19986;-70
2023/11/22 11:04:10;;;;;;;;;;;6.80;99.90;;;;;;8412203;28;19936;-70
2023/11/22 11:08:14;;;;;;;;;;;7.10;99.90;;;;;;8386555;28;19960;-70
2023/11/22 11:12:15;;;;;;;;;;;7.20;99.90;;;;;;8409955;28;19924;-70
2023/11/22 11:16:17;;;;;;;;;;;7.30;99.90;;;;;;8368164;28;19961;-70
2023/11/22 11:20:22;;;;;;;;;;;7.50;99.90;;;;;;8390806;28;19924;-70
2023/11/22 11:24:24;;;;;;;;;;;7.80;99.90;;;;;;8393735;28;20364;-70
2023/11/22 11:28:27;;;;;;;;;;;8.10;99.90;;;;;;8389018;28;19924;-70
2023/11/22 11:32:32;;;;;;;;;;;8.30;99.90;;;;;;8394578;28;19924;-70
2023/11/22 11:36:36;;;;;;;;;;;8.10;99.90;;;;;;8398003;28;20379;-70
2023/11/22 11:40:38;;;;;;;;;;;7.80;99.90;;;;;;8381940;28;20271;-70
2023/11/22 11:44:58;;;;;;;;;;;7.60;99.90;;;;;;8389135;28;20084;-70
2023/11/22 11:49:02;;;;;;;;;;;7.40;99.90;;;;;;8388822;28;20342;-71
2023/11/22 11:53:04;;;;;;;;;;;7.30;99.90;;;;;;8382316;28;19924;-70
2023/11/22 11:57:06;;;;;;;;;;;7.20;99.90;;;;;;8364935;28;19948;-70
2023/11/22 12:01:08;;;;;;;;;;;7.10;99.90;;;;;;8391390;28;19932;-70
2023/11/22 12:05:09;;;;;;;;;;;7.10;99.90;;;;;;8400210;28;19928;-70
2023/11/22 12:09:11;;;;;;;;;;;7.20;99.90;;;;;;8397712;28;19939;-70
2023/11/22 12:13:13;;;;;;;;;;;7.50;99.90;;;;;;8411556;28;19927;-70
2023/11/22 12:17:14;;;;;;;;;;;7.80;99.90;;;;;;8386412;28;19931;-70
2023/11/22 12:21:17;;;;;;;;;;;8.10;99.90;;;;;;8383260;28;19925;-70
2023/11/22 12:25:21;;;;;;;;;;;8.30;99.90;;;;;;8406819;28;20257;-70
2023/11/22 12:29:23;;;;;;;;;;;8.40;99.90;;;;;;8410904;28;20020;-70
2023/11/22 12:33:26;;;;;;;;;;;8.40;99.90;;;;;;8404954;28;19924;-70
2023/11/22 12:37:29;;;;;;;;;;;8.40;99.90;;;;;;8368041;28;19982;-71
2023/11/22 12:41:31;;;;;;;;;;;8.50;99.90;;;;;;8394658;28;19932;-70
2023/11/22 12:45:38;;;;;;;;;;;8.80;99.90;;;;;;8405333;28;20230;-70
2023/11/22 12:49:45;;;;;;;;;;;9.10;99.90;;;;;;8403836;28;20002;-70
2023/11/22 12:53:48;;;;;;;;;;;8.90;99.90;;;;;;8370789;28;20313;-70
2023/11/22 12:57:57;;;;;;;;;;;8.60;99.90;;;;;;8417263;28;20009;-70
2023/11/22 13:02:00;;;;;;;;;;;8.40;99.90;;;;;;8386886;28;20537;-70
2023/11/22 13:06:02;;;;;;;;;;;8.10;99.90;;;;;;8396689;28;19924;-70
2023/11/22 13:10:04;;;;;;;;;;;7.80;99.90;;;;;;8410466;28;19971;-70
2023/11/22 13:14:06;;;;;;;;;;;7.50;99.90;;;;;;8407348;28;19974;-69
2023/11/22 13:18:08;;;;;;;;;;;7.40;99.90;;;;;;8393197;28;19975;-70
2023/11/22 13:22:10;;;;;;;;;;;7.20;99.90;;;;;;8395668;28;19978;-70
2023/11/22 13:26:13;;;;;;;;;;;7.20;99.90;;;;;;8375633;28;19948;-70
2023/11/22 13:30:20;;;;;;;;;;;7.10;99.90;;;;;;8406960;28;20400;-70
2023/11/22 13:34:21;;;;;;;;;;;6.90;99.90;;;;;;8381930;28;19959;-70
2023/11/22 13:38:23;;;;;;;;;;;6.90;99.90;;;;;;8361809;28;20395;-70
2023/11/22 13:42:25;;;;;;;;;;;6.80;99.90;;;;;;8395374;28;19924;-70
2023/11/22 13:46:26;;;;;;;;;;;6.80;99.90;;;;;;8415265;28;19943;-71
2023/11/22 13:50:28;;;;;;;;;;;6.70;99.90;;;;;;8395788;28;20422;-70
2023/11/22 13:54:31;;;;;;;;;;;6.70;99.90;;;;;;8399040;28;20173;-70
2023/11/22 13:58:33;;;;;;;;;;;6.70;99.90;;;;;;8392368;28;19924;-70
2023/11/22 14:02:35;;;;;;;;;;;6.60;99.90;;;;;;8399183;28;20368;-70
2023/11/22 14:06:37;;;;;;;;;;;6.60;99.90;;;;;;8410320;28;20347;-70
2023/11/22 14:10:38;;;;;;;;;;;6.60;99.90;;;;;;8370724;28;20402;-70
2023/11/22 14:14:40;;;;;;;;;;;6.50;99.90;;;;;;8397519;28;19925;-70
2023/11/22 14:18:42;;;;;;;;;;;6.40;99.90;;;;;;8365172;28;20284;-70
2023/11/22 14:22:43;;;;;;;;;;;6.40;99.90;;;;;;8394740;28;19950;-70
2023/11/22 14:26:48;;;;;;;;;;;6.40;99.90;;;;;;8384309;28;19928;-70
2023/11/22 14:30:54;;;;;;;;;;;6.40;99.90;;;;;;8358817;28;19933;-70
2023/11/22 14:34:56;;;;;;;;;;;6.40;99.90;;;;;;8391138;28;20268;-70
2023/11/22 14:38:58;;;;;;;;;;;6.40;99.90;;;;;;8381789;28;19968;-70
2023/11/22 14:43:02;;;;;;;;;;;6.30;99.90;;;;;;8371765;28;20019;-71
2023/11/22 14:47:14;;;;;;;;;;;6.30;99.90;;;;;;8385994;28;19960;-70
2023/11/22 14:51:16;;;;;;;;;;;6.40;99.90;;;;;;8390788;28;20367;-70
2023/11/22 14:55:23;;;;;;;;;;;6.30;99.90;;;;;;8389413;28;19932;-70
2023/11/22 14:59:26;;;;;;;;;;;6.30;99.90;;;;;;8383375;28;20411;-70
2023/11/22 15:13:36;;;;;;;;;;;6.10;99.90;;;;;;8385666;28;20005;-70
2023/11/22 15:17:38;;;;;;;;;;;6.00;99.90;;;;;;8388897;28;19928;-70
2023/11/22 15:21:39;;;;;;;;;;;6.00;99.90;;;;;;8403838;28;19958;-70
2023/11/22 15:25:41;;;;;;;;;;;6.00;99.90;;;;;;8403643;28;20260;-70
2023/11/22 15:29:43;;;;;;;;;;;6.00;99.90;;;;;;8387089;28;19924;-71
2023/11/22 15:33:45;;;;;;;;;;;6.00;99.90;;;;;;8402135;28;19925;-70
2023/11/22 15:37:47;;;;;;;;;;;6.00;99.90;;;;;;8400009;28;19977;-70
2023/11/22 15:41:48;;;;;;;;;;;6.00;99.90;;;;;;8405773;28;19924;-70
2023/11/22 15:45:50;;;;;;;;;;;5.90;99.90;;;;;;8370843;28;19978;-70
2023/11/22 15:49:54;;;;;;;;;;;5.90;99.90;;;;;;8375628;28;19947;-70
2023/11/22 15:53:56;;;;;;;;;;;5.90;99.90;;;;;;8405726;28;20371;-70
2023/11/22 15:57:57;;;;;;;;;;;5.80;99.90;;;;;;8406021;28;19928;-71
2023/11/22 16:01:59;;;;;;;;;;;5.80;99.90;;;;;;8371107;28;20342;-71
2023/11/22 16:11:04;;;;;;;;;;;5.80;99.90;;;;;;8398219;28;19982;-70
2023/11/22 16:15:08;;;;;;;;;;;5.70;99.90;;;;;;8391053;28;19925;-71
2023/11/22 16:19:10;;;;;;;;;;;5.70;99.90;;;;;;8399374;28;20368;-70
2023/11/22 16:23:12;;;;;;;;;;;5.70;99.90;;;;;;8361845;28;19964;-70
2023/11/22 16:27:14;;;;;;;;;;;5.70;99.90;;;;;;8408201;28;19967;-70
2023/11/22 16:31:16;;;;;;;;;;;5.70;99.90;;;;;;8401833;28;19924;-70
2023/11/22 16:35:18;;;;;;;;;;;5.60;99.90;;;;;;8395559;28;19958;-70
2023/11/22 16:39:22;;;;;;;;;;;5.60;99.90;;;;;;8384297;28;19928;-71
2023/11/22 16:43:30;;;;;;;;;;;5.70;99.90;;;;;;8365143;28;19955;-70
2023/11/22 16:47:32;;;;;;;;;;;5.60;99.90;;;;;;8361474;28;19979;-71
2023/11/22 16:51:34;;;;;;;;;;;5.70;99.90;;;;;;8373505;28;20700;-70
2023/11/22 16:55:36;;;;;;;;;;;5.70;99.90;;;;;;8356703;28;19978;-71
2023/11/22 16:59:38;;;;;;;;;;;5.70;99.90;;;;;;8347844;28;19928;-71
2023/11/22 17:03:40;;;;;;;;;;;5.70;99.90;;;;;;8356204;28;19925;-70
2023/11/22 17:07:42;;;;;;;;;;;5.80;99.90;;;;;;8371060;28;19925;-71
2023/11/22 17:11:44;;;;;;;;;;;5.80;99.90;;;;;;8367581;28;19976;-70
2023/11/22 17:15:45;;;;;;;;;;;5.80;99.90;;;;;;8356137;28;19939;-70
2023/11/22 17:19:48;;;;;;;;;;;5.80;99.90;;;;;;8353164;28;19932;-70
2023/11/22 17:23:50;;;;;;;;;;;5.80;99.90;;;;;;8354884;28;19947;-70
2023/11/22 17:27:51;;;;;;;;;;;5.80;99.90;;;;;;8352790;28;19987;-70
2023/11/22 17:31:56;;;;;;;;;;;5.90;99.90;;;;;;8353426;28;19928;-70
2023/11/22 17:35:57;;;;;;;;;;;5.90;99.90;;;;;;8353239;28;19924;-70
2023/11/22 17:39:59;;;;;;;;;;;6.00;99.90;;;;;;8339743;28;19935;-70
2023/11/22 17:44:01;;;;;;;;;;;6.00;99.90;;;;;;8342445;28;19932;-70
2023/11/22 17:48:03;;;;;;;;;;;6.00;99.90;;;;;;8340217;28;20396;-72
2023/11/22 17:52:05;;;;;;;;;;;6.00;99.90;;;;;;8343863;28;19925;-71
2023/11/22 17:56:07;;;;;;;;;;;6.00;99.90;;;;;;8354902;28;20285;-71
2023/11/22 18:00:09;;;;;;;;;;;5.90;99.90;;;;;;8371570;28;19929;-71
2023/11/22 18:04:12;;;;;;;;;;;5.90;99.90;;;;;;8352828;28;19978;-71
2023/11/22 18:08:16;;;;;;;;;;;5.90;99.90;;;;;;8358236;28;20279;-70
2023/11/22 18:12:19;;;;;;;;;;;5.90;99.90;;;;;;8364317;28;19931;-70
2023/11/22 18:16:21;;;;;;;;;;;6.00;99.90;;;;;;8353432;28;20296;-70
2023/11/22 18:20:23;;;;;;;;;;;6.00;99.90;;;;;;8357496;28;19933;-71
2023/11/22 18:24:27;;;;;;;;;;;6.00;99.90;;;;;;8353342;28;19971;-71
2023/11/22 18:28:29;;;;;;;;;;;6.00;99.90;;;;;;8356453;28;19967;-70
2023/11/22 18:32:31;;;;;;;;;;;6.00;99.90;;;;;;8345986;28;19933;-71
2023/11/22 18:36:33;;;;;;;;;;;6.00;99.90;;;;;;8350011;28;19925;-71
2023/11/22 18:40:35;;;;;;;;;;;6.10;99.90;;;;;;8360732;28;19924;-70
2023/11/22 18:44:38;;;;;;;;;;;6.10;99.90;;;;;;8358893;28;19931;-71
2023/11/22 18:48:40;;;;;;;;;;;6.10;99.90;;;;;;8339131;28;20012;-71
2023/11/22 18:52:42;;;;;;;;;;;6.10;99.90;;;;;;8354969;28;19973;-70
2023/11/22 18:56:44;;;;;;;;;;;6.10;99.90;;;;;;8356318;28;20319;-71
2023/11/22 19:00:46;;;;;;;;;;;6.10;99.90;;;;;;8356169;28;20331;-70
2023/11/22 19:04:49;;;;;;;;;;;6.00;99.90;;;;;;8352191;28;19928;-71
2023/11/22 19:08:52;;;;;;;;;;;6.00;99.90;;;;;;8352623;28;20299;-71
2023/11/22 19:12:54;;;;;;;;;;;6.00;99.90;;;;;;8335287;28;19929;-71
2023/11/22 19:17:26;;;;;;;;;;;6.10;99.90;;;;;;8357684;28;19986;-71
2023/11/22 19:21:28;;;;;;;;;;;6.10;99.90;;;;;;8343079;28;19932;-70
2023/11/22 19:25:32;;;;;;;;;;;6.10;99.90;;;;;;8357215;28;20436;-70
2023/11/22 19:29:38;;;;;;;;;;;6.20;99.90;;;;;;8361246;28;19925;-70
2023/11/22 19:33:39;;;;;;;;;;;6.20;99.90;;;;;;8357846;28;19974;-70
2023/11/22 19:37:41;;;;;;;;;;;6.30;99.90;;;;;;8364771;28;19968;-70
2023/11/22 19:41:43;;;;;;;;;;;6.30;99.90;;;;;;8352790;28;19931;-70
2023/11/22 19:45:46;;;;;;;;;;;6.40;99.90;;;;;;8355360;28;19986;-70
2023/11/22 19:49:47;;;;;;;;;;;6.40;99.90;;;;;;8362263;28;20295;-70
2023/11/22 19:53:49;;;;;;;;;;;6.40;99.90;;;;;;8354245;28;19928;-70
2023/11/22 19:57:51;;;;;;;;;;;6.50;99.90;;;;;;8357280;28;19933;-71
2023/11/22 20:01:52;;;;;;;;;;;6.50;99.90;;;;;;8361802;28;19931;-70
2023/11/22 20:05:55;;;;;;;;;;;6.60;99.90;;;;;;8355451;28;19955;-70
2023/11/22 20:09:58;;;;;;;;;;;6.60;99.90;;;;;;8368524;28;19929;-70
2023/11/22 20:14:02;;;;;;;;;;;6.60;99.90;;;;;;8370552;28;20028;-70
2023/11/22 20:18:04;;;;;;;;;;;6.60;99.90;;;;;;8365034;28;19928;-70
2023/11/22 20:22:07;;;;;;;;;;;6.60;99.90;;;;;;8356026;28;19939;-70
2023/11/22 20:26:09;;;;;;;;;;;6.60;99.90;;;;;;8363233;28;19932;-70
2023/11/22 20:30:11;;;;;;;;;;;6.70;99.90;;;;;;8369686;28;19924;-70
2023/11/22 20:34:13;;;;;;;;;;;6.70;99.90;;;;;;8353081;28;19935;-71
2023/11/22 20:38:15;;;;;;;;;;;6.80;99.90;;;;;;8369560;28;19925;-71
2023/11/22 20:42:16;;;;;;;;;;;6.80;99.90;;;;;;8369959;28;20343;-70
2023/11/22 20:46:18;;;;;;;;;;;6.80;99.90;;;;;;8371342;28;19958;-70
2023/11/22 20:50:20;;;;;;;;;;;6.80;99.90;;;;;;8374946;28;19932;-70
2023/11/22 20:54:21;;;;;;;;;;;6.90;99.90;;;;;;8385839;28;19932;-70
2023/11/22 20:58:23;;;;;;;;;;;6.80;99.90;;;;;;8368469;28;20365;-70
2023/11/22 21:02:25;;;;;;;;;;;6.80;99.90;;;;;;8350447;28;19968;-70
2023/11/22 21:06:26;;;;;;;;;;;6.80;99.90;;;;;;8365123;28;19940;-71
2023/11/22 21:10:29;;;;;;;;;;;6.80;99.90;;;;;;8361225;28;19933;-71
2023/11/22 21:14:30;;;;;;;;;;;6.90;99.90;;;;;;8362690;28;19929;-70
2023/11/22 21:18:32;;;;;;;;;;;6.80;99.90;;;;;;8357025;28;20336;-70
2023/11/22 21:22:34;;;;;;;;;;;6.90;99.90;;;;;;8361317;28;20280;-70
2023/11/22 21:26:36;;;;;;;;;;;6.90;99.90;;;;;;8360110;28;19936;-70
2023/11/22 21:30:38;;;;;;;;;;;6.90;99.90;;;;;;8362202;28;19928;-70
2023/11/22 21:34:40;;;;;;;;;;;6.90;99.90;;;;;;8362156;28;19924;-70
2023/11/22 21:38:42;;;;;;;;;;;7.00;99.90;;;;;;8362479;28;19932;-70
2023/11/22 21:42:44;;;;;;;;;;;7.00;99.90;;;;;;8359719;28;19978;-71
2023/11/22 21:46:45;;;;;;;;;;;7.00;99.90;;;;;;8360500;28;19978;-70
2023/11/22 21:50:47;;;;;;;;;;;7.00;99.90;;;;;;8341123;28;20027;-70
2023/11/22 21:54:49;;;;;;;;;;;7.00;99.90;;;;;;8360659;28;19928;-70
2023/11/22 21:58:50;;;;;;;;;;;7.10;99.90;;;;;;8377586;28;19940;-70
2023/11/22 22:02:52;;;;;;;;;;;7.10;99.90;;;;;;8374725;28;19928;-71
2023/11/22 22:06:54;;;;;;;;;;;7.10;99.90;;;;;;8396715;28;19924;-70
2023/11/22 22:10:55;;;;;;;;;;;7.20;99.90;;;;;;8399772;28;19924;-71
2023/11/22 22:14:57;;;;;;;;;;;7.20;99.90;;;;;;8373396;28;19924;-70
2023/11/22 22:18:59;;;;;;;;;;;7.20;99.90;;;;;;8402295;28;19928;-70
2023/11/22 22:23:00;;;;;;;;;;;7.30;99.90;;;;;;8392303;28;19925;-71
2023/11/22 22:27:02;;;;;;;;;;;7.30;99.90;;;;;;8403175;28;19924;-70
2023/11/22 22:31:06;;;;;;;;;;;7.30;99.90;;;;;;8400986;28;20409;-70
2023/11/22 22:35:07;;;;;;;;;;;7.30;99.90;;;;;;8399688;28;19928;-70
2023/11/22 22:39:09;;;;;;;;;;;7.40;99.90;;;;;;8396983;28;19924;-70
2023/11/22 22:43:11;;;;;;;;;;;7.40;99.90;;;;;;8393470;28;20294;-71
2023/11/22 22:47:12;;;;;;;;;;;7.40;99.90;;;;;;8396401;28;20359;-70
2023/11/22 22:51:15;;;;;;;;;;;7.50;99.90;;;;;;8404362;28;20001;-70
2023/11/22 22:55:16;;;;;;;;;;;7.50;99.90;;;;;;8400729;28;20383;-71
2023/11/22 22:59:18;;;;;;;;;;;7.60;99.90;;;;;;8410228;28;19924;-70
2023/11/22 23:03:20;;;;;;;;;;;7.60;99.90;;;;;;8390877;28;19925;-71
2023/11/22 23:07:25;;;;;;;;;;;7.60;99.90;;;;;;8384478;28;20268;-71
2023/11/22 23:11:26;;;;;;;;;;;7.70;99.90;;;;;;8404921;28;19986;-70
2023/11/22 23:15:28;;;;;;;;;;;7.70;99.90;;;;;;8366682;28;19928;-70
2023/11/22 23:19:29;;;;;;;;;;;7.70;99.90;;;;;;8386485;28;19931;-70
2023/11/22 23:23:31;;;;;;;;;;;7.80;99.90;;;;;;8381794;28;20307;-70
2023/11/22 23:27:36;;;;;;;;;;;7.90;99.90;;;;;;8398358;28;20383;-71
2023/11/22 23:31:40;;;;;;;;;;;7.90;99.90;;;;;;8400270;28;20330;-70
2023/11/22 23:35:43;;;;;;;;;;;7.90;99.90;;;;;;8396973;28;19924;-70
2023/11/22 23:39:45;;;;;;;;;;;8.00;99.90;;;;;;8384890;28;20015;-70
2023/11/22 23:43:47;;;;;;;;;;;8.10;99.90;;;;;;8377829;28;19924;-70
2023/11/22 23:47:50;;;;;;;;;;;8.10;99.90;;;;;;8409891;28;19977;-70
2023/11/22 23:51:52;;;;;;;;;;;8.20;99.90;;;;;;8398308;28;19924;-71
2023/11/22 23:55:55;;;;;;;;;;;8.20;99.90;;;;;;8402778;28;19971;-70
2023/11/22 23:59:57;;;;;;;;;;;8.20;99.90;;;;;;8406786;28;20360;-70
